APL Columbus — 9V9920 — position and weather

sailwx.info

Track history (hours):
 
Tides and Currents Weather Stations Pressure Air Temp Water Temp Dewpoint Dewpoint Depression Visibility Wind Speed Wind Dir Waves Ship Positions

APL Columbus

Last reported at 2017-Aug-24 07:01 UTC. Time now 2017-Sep-20 22:11 UTC.
Position N 30°51' E 032°19'.
Warning: this ship's position is 27 days out of date.

Length 328 m; draft 14.4 m.

Type: Ship (hazmat cat A). MMSI: 566953000.

Date/timePositionNaut miles runAvg speedWind from/ knotsBaromVisibWave heightAir tempDewpointWater temp
2017-Aug-24 07:01N 30°51' E 032°19'0 9.3
2017-Aug-24 07:00N 30°51' E 032°19'37 6.0
2017-Aug-24 00:47N 31°28' E 032°18'0 0.2
2017-Aug-24 00:20N 31°28' E 032°18'0 0.0
2017-Aug-23 23:59N 31°28' E 032°18'0 0.0
2017-Aug-23 23:27N 31°28' E 032°18'0 0.0
2017-Aug-23 23:00N 31°28' E 032°18'9010.5
2017-Aug-23 14:30N 32°11' E 030°46'82418.7
2017-Aug-21 18:19N 36°15' E 014°54'618.9
2017-Aug-21 18:00N 36°17' E 014°47'918.8
2017-Aug-21 17:30N 36°20' E 014°36'1018.7
2017-Aug-21 17:00N 36°23' E 014°25'918.6
2017-Aug-21 16:30N 36°25' E 014°13'918.6
2017-Aug-21 16:00N 36°28' E 014°02'918.6
2017-Aug-21 15:31N 36°30' E 013°51'918.7
2017-Aug-21 15:00N 36°34' E 013°40'918.8
2017-Aug-21 14:30N 36°37' E 013°29'918.7
2017-Aug-21 14:00N 36°39' E 013°18'918.7
2017-Aug-21 13:30N 36°42' E 013°07'918.7
2017-Aug-21 13:00N 36°45' E 012°56'1018.7
2017-Aug-21 12:30N 36°47' E 012°44'918.7
2017-Aug-21 12:00N 36°50' E 012°33'918.3
2017-Aug-21 11:30N 36°53' E 012°23'918.1
2017-Aug-21 11:00N 36°57' E 012°13'13418.3
2017-Aug-21 03:42N 37°27' E 009°29'619.4
2017-Aug-21 03:23N 37°26' E 009°21'719.6
2017-Aug-21 03:00N 37°24' E 009°12'1019.8
2017-Aug-21 02:29N 37°21' E 008°60'919.7
2017-Aug-21 02:00N 37°19' E 008°48'1119.6
2017-Aug-21 01:28N 37°16' E 008°35'1119.3
2017-Aug-21 00:55N 37°16' E 008°22'1419.1
2017-Aug-21 00:13N 37°16' E 008°05'16519.4
2017-Aug-20 15:42N 37°07' E 004°38'819.2
2017-Aug-20 15:15N 37°06' E 004°28'719.5
2017-Aug-20 14:54N 37°06' E 004°19'719.3
2017-Aug-20 14:31N 37°05' E 004°10'1019.0
2017-Aug-20 14:00N 37°04' E 003°58'1918.8
2017-Aug-20 12:59N 37°02' E 003°34'14018.2
2017-Aug-20 05:19N 36°42' E 000°41'718.4
2017-Aug-20 04:57N 36°41' E 000°33'818.0
2017-Aug-20 04:31N 36°40' E 000°23'917.6
2017-Aug-20 04:00N 36°38' E 000°12'917.5
2017-Aug-20 03:30N 36°37' E 000°01'917.2
2017-Aug-20 03:01N 36°36' W 000°10'917.4
2017-Aug-20 02:31N 36°35' W 000°20'917.5
2017-Aug-20 02:00N 36°33' W 000°31'1317.5
2017-Aug-20 01:14N 36°32' W 000°48'617.5
2017-Aug-20 00:53N 36°31' W 000°55'1117.7
2017-Aug-20 00:17N 36°29' W 001°09'517.9
2017-Aug-20 00:00N 36°28' W 001°15'2317.9
2017-Aug-19 22:44N 36°25' W 001°43'418.4
2017-Aug-19 22:31N 36°24' W 001°48'918.7
2017-Aug-19 22:01N 36°23' W 001°59'918.7
2017-Aug-19 21:30N 36°22' W 002°11'918.7
2017-Aug-19 21:00N 36°21' W 002°22'13519.2
2017-Aug-19 13:59N 36°01' W 005°07'919.3
2017-Aug-19 13:30N 35°59' W 005°18'1019.5
2017-Aug-19 13:00N 35°56' W 005°30'1718.6
2017-Aug-19 12:05N 35°54' W 005°51'218.6
2017-Aug-19 12:00N 35°54' W 005°53'2318.7
2017-Aug-19 10:47N 35°55' W 006°21'1319.5
2017-Aug-19 10:07N 35°59' W 006°36'219.5
2017-Aug-19 10:00N 35°60' W 006°38'2919.1
2017-Aug-19 08:31N 36°07' W 007°13'018.8
2017-Aug-19 08:30N 36°07' W 007°13'2318.8
2017-Aug-19 07:16N 36°13' W 007°41'519.2
2017-Aug-19 06:59N 36°14' W 007°47'1119.1
2017-Aug-19 06:26N 36°17' W 007°60'819.2
2017-Aug-19 06:00N 36°19' W 008°10'1019.1
2017-Aug-19 05:30N 36°22' W 008°21'1019.1
2017-Aug-19 05:00N 36°24' W 008°33'1019.2
2017-Aug-19 04:28N 36°27' W 008°45'919.2
2017-Aug-19 04:00N 36°29' W 008°56'919.0
2017-Aug-19 03:30N 36°31' W 009°07'1019.1
2017-Aug-19 03:00N 36°35' W 009°18'1019.6
2017-Aug-19 02:30N 36°41' W 009°27'4319.5
2017-Aug-19 00:18N 37°22' W 009°43'719.4
2017-Aug-18 23:57N 37°29' W 009°46'819.0
2017-Aug-18 23:30N 37°37' W 009°48'1119.5
2017-Aug-18 22:57N 37°47' W 009°50'919.6
2017-Aug-18 22:31N 37°56' W 009°53'1019.2
2017-Aug-18 22:01N 38°05' W 009°55'1019.0
2017-Aug-18 21:29N 38°15' W 009°58'919.1
2017-Aug-18 21:01N 38°24' W 010°00'1019.6
2017-Aug-18 20:31N 38°34' W 010°03'919.0
2017-Aug-18 20:01N 38°43' W 010°07'1019.5
2017-Aug-18 19:31N 38°52' W 010°07'1019.6
2017-Aug-18 19:00N 39°02' W 010°07'1019.4
2017-Aug-18 18:31N 39°12' W 010°06'1019.7
2017-Aug-18 18:00N 39°22' W 010°07'1019.5
2017-Aug-18 17:30N 39°32' W 010°07'1019.5
2017-Aug-18 17:00N 39°41' W 010°07'1019.4
2017-Aug-18 16:30N 39°51' W 010°07'1019.3
2017-Aug-18 16:00N 40°01' W 010°07'1019.6
2017-Aug-18 15:30N 40°10' W 010°07'1219.6
2017-Aug-18 14:55N 40°22' W 010°07'54918.7
2017-Aug-17 09:32N 48°56' W 005°36'418.2
2017-Aug-17 09:20N 48°58' W 005°31'618.4
2017-Aug-17 09:00N 49°01' W 005°23'1619.1
2017-Aug-17 08:08N 49°09' W 005°01'219.1
2017-Aug-17 08:00N 49°11' W 004°58'1119.5
2017-Aug-17 07:27N 49°16' W 004°44'919.8
2017-Aug-17 07:00N 49°21' W 004°32'1120.0
2017-Aug-17 06:26N 49°27' W 004°17'919.8
2017-Aug-17 05:59N 49°32' W 004°06'919.7
2017-Aug-17 05:30N 49°36' W 003°53'1019.3
2017-Aug-17 05:00N 49°41' W 003°40'918.7
2017-Aug-17 04:30N 49°45' W 003°27'918.2
2017-Aug-17 04:00N 49°50' W 003°15'917.7
2017-Aug-17 03:30N 49°55' W 003°04'917.2
2017-Aug-17 03:00N 49°59' W 002°52'816.9
2017-Aug-17 02:30N 50°01' W 002°39'2116.9
2017-Aug-17 01:17N 50°03' W 002°07'517.0
2017-Aug-17 01:00N 50°04' W 002°00'815.9
2017-Aug-17 00:30N 50°03' W 001°48'917.5
2017-Aug-17 00:00N 49°56' W 001°39'1019.2
2017-Aug-16 23:30N 49°53' W 001°25'1019.8
2017-Aug-16 23:01N 49°49' W 001°11'1020.2
2017-Aug-16 22:31N 49°45' W 000°56'1120.7
2017-Aug-16 21:58N 49°40' W 000°40'1120.7
2017-Aug-16 21:25N 49°36' W 000°25'820.2
2017-Aug-16 21:00N 49°33' W 000°13'815.3
2017-Aug-16 20:30N 49°30' W 000°01'612.4
2017-Aug-16 20:00N 49°28' E 000°08'2 3.0
2017-Aug-16 19:30N 49°29' E 000°10'0 0.0
2017-Aug-16 19:00N 49°29' E 000°10'0 0.0
2017-Aug-16 18:30N 49°29' E 000°10'0 0.0
2017-Aug-16 18:00N 49°29' E 000°10'0 0.0
2017-Aug-16 17:30N 49°29' E 000°10'0 0.0
2017-Aug-16 17:00N 49°29' E 000°10'0 0.0
2017-Aug-16 16:30N 49°29' E 000°10'0 0.0
2017-Aug-16 16:00N 49°29' E 000°10'0 0.0
2017-Aug-16 15:30N 49°29' E 000°10'0 0.0
2017-Aug-16 15:00N 49°29' E 000°10'0 0.0
2017-Aug-16 14:30N 49°29' E 000°10'0 0.0
2017-Aug-16 14:00N 49°29' E 000°10'0 0.0
2017-Aug-16 13:30N 49°29' E 000°10'0 0.0
2017-Aug-16 13:00N 49°29' E 000°10'0 0.0
2017-Aug-16 12:30N 49°29' E 000°10'0 0.0
2017-Aug-16 12:00N 49°29' E 000°10'0 0.0
2017-Aug-16 11:30N 49°29' E 000°10'0 0.0
2017-Aug-16 11:00N 49°29' E 000°10'0 0.0
2017-Aug-16 10:30N 49°29' E 000°10'0 0.0
2017-Aug-16 10:00N 49°29' E 000°10'0 0.0
2017-Aug-16 09:30N 49°29' E 000°10'0 0.0
2017-Aug-16 09:00N 49°29' E 000°10'0 0.0
2017-Aug-16 08:30N 49°29' E 000°10'0 0.0
2017-Aug-16 08:00N 49°29' E 000°10'0 0.0
2017-Aug-16 07:30N 49°29' E 000°10'0 0.0
2017-Aug-16 07:00N 49°29' E 000°10'0 0.0
2017-Aug-16 06:30N 49°29' E 000°10'0 0.0
2017-Aug-16 06:00N 49°29' E 000°10'0 0.0
2017-Aug-16 05:30N 49°29' E 000°10'0 0.0
2017-Aug-16 05:00N 49°29' E 000°10'0 0.0
2017-Aug-16 04:30N 49°29' E 000°10'0 0.9
2017-Aug-16 04:00N 49°28' E 000°09'3 6.7
2017-Aug-16 03:31N 49°29' E 000°04'714.3
2017-Aug-16 03:00N 49°31' W 000°06'4 7.6
2017-Aug-16 02:30N 49°33' W 000°11'4 8.3
2017-Aug-16 02:00N 49°37' W 000°11'510.7
2017-Aug-16 01:30N 49°43' W 000°12'1120.6
2017-Aug-16 00:58N 49°54' W 000°10'1021.1
2017-Aug-16 00:30N 50°03' W 000°08'1121.2
2017-Aug-16 00:00N 50°14' W 000°07'1121.0
2017-Aug-15 23:30N 50°24' W 000°03'1019.3
2017-Aug-15 23:00N 50°29' E 000°10'1121.6
2017-Aug-15 22:30N 50°32' E 000°26'1121.8
2017-Aug-15 22:01N 50°37' E 000°42'1121.6
2017-Aug-15 21:31N 50°43' E 000°56'1121.0
2017-Aug-15 20:58N 50°50' E 001°10'1020.7
2017-Aug-15 20:31N 50°57' E 001°21'1019.9
2017-Aug-15 20:01N 51°04' E 001°32'1019.3
2017-Aug-15 19:31N 51°11' E 001°43'918.9
2017-Aug-15 19:01N 51°19' E 001°50'1019.0
2017-Aug-15 18:31N 51°28' E 001°54'1019.3
2017-Aug-15 18:00N 51°37' E 001°47'918.6
2017-Aug-15 17:31N 51°46' E 001°45'815.4
2017-Aug-15 17:01N 51°52' E 001°36'510.9
2017-Aug-15 16:31N 51°56' E 001°31'713.7
2017-Aug-15 16:00N 51°55' E 001°20'3 5.8
2017-Aug-15 15:30N 51°58' E 001°17'0 0.1
2017-Aug-15 15:00N 51°58' E 001°17'0 0.0
2017-Aug-15 14:30N 51°58' E 001°17'0 0.0
2017-Aug-15 14:00N 51°58' E 001°17'0 0.0
2017-Aug-15 13:30N 51°58' E 001°17'0 0.0
2017-Aug-15 13:00N 51°58' E 001°17'0 0.0
2017-Aug-15 12:30N 51°58' E 001°17'0 0.0
2017-Aug-15 12:00N 51°58' E 001°17'0 0.0
2017-Aug-15 11:30N 51°58' E 001°17'0 0.0
2017-Aug-15 11:00N 51°58' E 001°17'0 0.0
2017-Aug-15 10:30N 51°58' E 001°17'0 0.0
2017-Aug-15 10:00N 51°58' E 001°17'0 0.0
2017-Aug-15 09:30N 51°58' E 001°17'0 0.0
2017-Aug-15 09:00N 51°58' E 001°17'0 0.0
2017-Aug-15 08:30N 51°58' E 001°17'0 0.0
2017-Aug-15 08:00N 51°58' E 001°17'0 0.0
2017-Aug-15 07:30N 51°58' E 001°17'0 0.0
2017-Aug-15 07:00N 51°58' E 001°17'0 0.0
2017-Aug-15 06:30N 51°58' E 001°17'0 0.0
2017-Aug-15 06:00N 51°58' E 001°17'0 0.0
2017-Aug-15 05:30N 51°58' E 001°17'0 0.0
2017-Aug-15 05:00N 51°58' E 001°17'0 0.0
2017-Aug-15 04:30N 51°58' E 001°17'0 0.0
2017-Aug-15 04:01N 51°58' E 001°17'0 0.0
2017-Aug-15 03:31N 51°58' E 001°17'0 0.0
2017-Aug-15 03:00N 51°58' E 001°17'0 0.0
2017-Aug-15 02:30N 51°58' E 001°17'0 0.0
2017-Aug-15 02:00N 51°58' E 001°17'0 0.0
2017-Aug-15 01:30N 51°58' E 001°17'0 0.0
2017-Aug-15 01:00N 51°58' E 001°17'0 0.0
2017-Aug-15 00:30N 51°58' E 001°17'0 0.0
2017-Aug-15 00:01N 51°58' E 001°17'0 0.0
2017-Aug-14 23:30N 51°58' E 001°17'0 0.0
2017-Aug-14 23:00N 51°58' E 001°17'0 0.0
2017-Aug-14 22:30N 51°58' E 001°17'0 0.0
2017-Aug-14 22:01N 51°58' E 001°17'0 0.0
2017-Aug-14 21:30N 51°58' E 001°17'0 0.0
2017-Aug-14 21:01N 51°58' E 001°17'0 0.0
2017-Aug-14 20:30N 51°58' E 001°17'0 0.0
2017-Aug-14 20:00N 51°58' E 001°17'0 0.0
2017-Aug-14 19:30N 51°58' E 001°17'0 0.0
2017-Aug-14 19:00N 51°58' E 001°17'0 0.0
2017-Aug-14 18:30N 51°58' E 001°17'0 0.0
2017-Aug-14 18:00N 51°58' E 001°17'0 0.0
2017-Aug-14 17:30N 51°58' E 001°17'0 0.0
2017-Aug-14 17:00N 51°58' E 001°17'0 0.0
2017-Aug-14 16:31N 51°58' E 001°17'0 0.0
2017-Aug-14 16:01N 51°58' E 001°17'0 0.0
2017-Aug-14 15:30N 51°58' E 001°17'0 0.0
2017-Aug-14 15:00N 51°58' E 001°17'0 0.0
2017-Aug-14 14:30N 51°58' E 001°17'0 0.0
2017-Aug-14 14:00N 51°58' E 001°17'0 0.0
2017-Aug-14 13:30N 51°58' E 001°17'0 0.1
2017-Aug-14 13:00N 51°58' E 001°17'1 2.1
2017-Aug-14 12:30N 51°57' E 001°18'3 5.9
2017-Aug-14 12:01N 51°56' E 001°23'612.9
2017-Aug-14 11:30N 51°55' E 001°33'510.1
2017-Aug-14 11:01N 51°52' E 001°39'4 8.2
2017-Aug-14 10:31N 51°53' E 001°45'0 0.9
2017-Aug-14 10:00N 51°53' E 001°46'0 0.6
2017-Aug-14 09:31N 51°53' E 001°46'0 0.8
2017-Aug-14 09:01N 51°53' E 001°46'0 0.3
2017-Aug-14 08:30N 51°53' E 001°46'0 0.9
2017-Aug-14 08:00N 51°53' E 001°46'1 1.2
2017-Aug-14 07:31N 51°52' E 001°46'  
Track history (hours):
 
Tides and Currents Weather Stations Pressure Air Temp Water Temp Dewpoint Dewpoint Depression Visibility Wind Speed Wind Dir Waves Ship Positions

APL Columbus

Last reported at 2017-Aug-24 07:01 UTC. Time now 2017-Sep-20 22:12 UTC.
Position N 30°51' E 032°19'.
Warning: this ship's position is 27 days out of date.

Length 328 m; draft 14.4 m.

Type: Ship (hazmat cat A). MMSI: 566953000.

Date/timePositionNaut miles runAvg speedWind from/ knotsBaromVisibWave heightAir tempDewpointWater temp
2017-Aug-24 07:01N 30°51' E 032°19'0 9.3
2017-Aug-24 07:00N 30°51' E 032°19'37 6.0
2017-Aug-24 00:47N 31°28' E 032°18'0 0.2
2017-Aug-24 00:20N 31°28' E 032°18'0 0.0
2017-Aug-23 23:59N 31°28' E 032°18'0 0.0
2017-Aug-23 23:27N 31°28' E 032°18'0 0.0
2017-Aug-23 23:00N 31°28' E 032°18'9010.5
2017-Aug-23 14:30N 32°11' E 030°46'82418.7
2017-Aug-21 18:19N 36°15' E 014°54'618.9
2017-Aug-21 18:00N 36°17' E 014°47'918.8
2017-Aug-21 17:30N 36°20' E 014°36'1018.7
2017-Aug-21 17:00N 36°23' E 014°25'918.6
2017-Aug-21 16:30N 36°25' E 014°13'918.6
2017-Aug-21 16:00N 36°28' E 014°02'918.6
2017-Aug-21 15:31N 36°30' E 013°51'918.7
2017-Aug-21 15:00N 36°34' E 013°40'918.8
2017-Aug-21 14:30N 36°37' E 013°29'918.7
2017-Aug-21 14:00N 36°39' E 013°18'918.7
2017-Aug-21 13:30N 36°42' E 013°07'918.7
2017-Aug-21 13:00N 36°45' E 012°56'1018.7
2017-Aug-21 12:30N 36°47' E 012°44'918.7
2017-Aug-21 12:00N 36°50' E 012°33'918.3
2017-Aug-21 11:30N 36°53' E 012°23'918.1
2017-Aug-21 11:00N 36°57' E 012°13'13418.3
2017-Aug-21 03:42N 37°27' E 009°29'619.4
2017-Aug-21 03:23N 37°26' E 009°21'719.6
2017-Aug-21 03:00N 37°24' E 009°12'1019.8
2017-Aug-21 02:29N 37°21' E 008°60'919.7
2017-Aug-21 02:00N 37°19' E 008°48'1119.6
2017-Aug-21 01:28N 37°16' E 008°35'1119.3
2017-Aug-21 00:55N 37°16' E 008°22'1419.1
2017-Aug-21 00:13N 37°16' E 008°05'16519.4
2017-Aug-20 15:42N 37°07' E 004°38'819.2
2017-Aug-20 15:15N 37°06' E 004°28'719.5
2017-Aug-20 14:54N 37°06' E 004°19'719.3
2017-Aug-20 14:31N 37°05' E 004°10'1019.0
2017-Aug-20 14:00N 37°04' E 003°58'1918.8
2017-Aug-20 12:59N 37°02' E 003°34'14018.2
2017-Aug-20 05:19N 36°42' E 000°41'718.4
2017-Aug-20 04:57N 36°41' E 000°33'818.0
2017-Aug-20 04:31N 36°40' E 000°23'917.6
2017-Aug-20 04:00N 36°38' E 000°12'917.5
2017-Aug-20 03:30N 36°37' E 000°01'917.2
2017-Aug-20 03:01N 36°36' W 000°10'917.4
2017-Aug-20 02:31N 36°35' W 000°20'917.5
2017-Aug-20 02:00N 36°33' W 000°31'1317.5
2017-Aug-20 01:14N 36°32' W 000°48'617.5
2017-Aug-20 00:53N 36°31' W 000°55'1117.7
2017-Aug-20 00:17N 36°29' W 001°09'517.9
2017-Aug-20 00:00N 36°28' W 001°15'2317.9
2017-Aug-19 22:44N 36°25' W 001°43'418.4
2017-Aug-19 22:31N 36°24' W 001°48'918.7
2017-Aug-19 22:01N 36°23' W 001°59'918.7
2017-Aug-19 21:30N 36°22' W 002°11'918.7
2017-Aug-19 21:00N 36°21' W 002°22'13519.2
2017-Aug-19 13:59N 36°01' W 005°07'919.3
2017-Aug-19 13:30N 35°59' W 005°18'1019.5
2017-Aug-19 13:00N 35°56' W 005°30'1718.6
2017-Aug-19 12:05N 35°54' W 005°51'218.6
2017-Aug-19 12:00N 35°54' W 005°53'2318.7
2017-Aug-19 10:47N 35°55' W 006°21'1319.5
2017-Aug-19 10:07N 35°59' W 006°36'219.5
2017-Aug-19 10:00N 35°60' W 006°38'2919.1
2017-Aug-19 08:31N 36°07' W 007°13'018.8
2017-Aug-19 08:30N 36°07' W 007°13'2318.8
2017-Aug-19 07:16N 36°13' W 007°41'519.2
2017-Aug-19 06:59N 36°14' W 007°47'1119.1
2017-Aug-19 06:26N 36°17' W 007°60'819.2
2017-Aug-19 06:00N 36°19' W 008°10'1019.1
2017-Aug-19 05:30N 36°22' W 008°21'1019.1
2017-Aug-19 05:00N 36°24' W 008°33'1019.2
2017-Aug-19 04:28N 36°27' W 008°45'919.2
2017-Aug-19 04:00N 36°29' W 008°56'919.0
2017-Aug-19 03:30N 36°31' W 009°07'1019.1
2017-Aug-19 03:00N 36°35' W 009°18'1019.6
2017-Aug-19 02:30N 36°41' W 009°27'4319.5
2017-Aug-19 00:18N 37°22' W 009°43'719.4
2017-Aug-18 23:57N 37°29' W 009°46'819.0
2017-Aug-18 23:30N 37°37' W 009°48'1119.5
2017-Aug-18 22:57N 37°47' W 009°50'919.6
2017-Aug-18 22:31N 37°56' W 009°53'1019.2
2017-Aug-18 22:01N 38°05' W 009°55'1019.0
2017-Aug-18 21:29N 38°15' W 009°58'919.1
2017-Aug-18 21:01N 38°24' W 010°00'1019.6
2017-Aug-18 20:31N 38°34' W 010°03'919.0
2017-Aug-18 20:01N 38°43' W 010°07'1019.5
2017-Aug-18 19:31N 38°52' W 010°07'1019.6
2017-Aug-18 19:00N 39°02' W 010°07'1019.4
2017-Aug-18 18:31N 39°12' W 010°06'1019.7
2017-Aug-18 18:00N 39°22' W 010°07'1019.5
2017-Aug-18 17:30N 39°32' W 010°07'1019.5
2017-Aug-18 17:00N 39°41' W 010°07'1019.4
2017-Aug-18 16:30N 39°51' W 010°07'1019.3
2017-Aug-18 16:00N 40°01' W 010°07'1019.6
2017-Aug-18 15:30N 40°10' W 010°07'1219.6
2017-Aug-18 14:55N 40°22' W 010°07'54918.7
2017-Aug-17 09:32N 48°56' W 005°36'418.2
2017-Aug-17 09:20N 48°58' W 005°31'618.4
2017-Aug-17 09:00N 49°01' W 005°23'1619.1
2017-Aug-17 08:08N 49°09' W 005°01'219.1
2017-Aug-17 08:00N 49°11' W 004°58'1119.5
2017-Aug-17 07:27N 49°16' W 004°44'919.8
2017-Aug-17 07:00N 49°21' W 004°32'1120.0
2017-Aug-17 06:26N 49°27' W 004°17'919.8
2017-Aug-17 05:59N 49°32' W 004°06'919.7
2017-Aug-17 05:30N 49°36' W 003°53'1019.3
2017-Aug-17 05:00N 49°41' W 003°40'918.7
2017-Aug-17 04:30N 49°45' W 003°27'918.2
2017-Aug-17 04:00N 49°50' W 003°15'917.7
2017-Aug-17 03:30N 49°55' W 003°04'917.2
2017-Aug-17 03:00N 49°59' W 002°52'816.9
2017-Aug-17 02:30N 50°01' W 002°39'2116.9
2017-Aug-17 01:17N 50°03' W 002°07'517.0
2017-Aug-17 01:00N 50°04' W 002°00'815.9
2017-Aug-17 00:30N 50°03' W 001°48'917.5
2017-Aug-17 00:00N 49°56' W 001°39'1019.2
2017-Aug-16 23:30N 49°53' W 001°25'1019.8
2017-Aug-16 23:01N 49°49' W 001°11'1020.2
2017-Aug-16 22:31N 49°45' W 000°56'1120.7
2017-Aug-16 21:58N 49°40' W 000°40'1120.7
2017-Aug-16 21:25N 49°36' W 000°25'820.2
2017-Aug-16 21:00N 49°33' W 000°13'815.3
2017-Aug-16 20:30N 49°30' W 000°01'612.4
2017-Aug-16 20:00N 49°28' E 000°08'2 3.0
2017-Aug-16 19:30N 49°29' E 000°10'0 0.0
2017-Aug-16 19:00N 49°29' E 000°10'0 0.0
2017-Aug-16 18:30N 49°29' E 000°10'0 0.0
2017-Aug-16 18:00N 49°29' E 000°10'0 0.0
2017-Aug-16 17:30N 49°29' E 000°10'0 0.0
2017-Aug-16 17:00N 49°29' E 000°10'0 0.0
2017-Aug-16 16:30N 49°29' E 000°10'0 0.0
2017-Aug-16 16:00N 49°29' E 000°10'0 0.0
2017-Aug-16 15:30N 49°29' E 000°10'0 0.0
2017-Aug-16 15:00N 49°29' E 000°10'0 0.0
2017-Aug-16 14:30N 49°29' E 000°10'0 0.0
2017-Aug-16 14:00N 49°29' E 000°10'0 0.0
2017-Aug-16 13:30N 49°29' E 000°10'0 0.0
2017-Aug-16 13:00N 49°29' E 000°10'0 0.0
2017-Aug-16 12:30N 49°29' E 000°10'0 0.0
2017-Aug-16 12:00N 49°29' E 000°10'0 0.0
2017-Aug-16 11:30N 49°29' E 000°10'0 0.0
2017-Aug-16 11:00N 49°29' E 000°10'0 0.0
2017-Aug-16 10:30N 49°29' E 000°10'0 0.0
2017-Aug-16 10:00N 49°29' E 000°10'0 0.0
2017-Aug-16 09:30N 49°29' E 000°10'0 0.0
2017-Aug-16 09:00N 49°29' E 000°10'0 0.0
2017-Aug-16 08:30N 49°29' E 000°10'0 0.0
2017-Aug-16 08:00N 49°29' E 000°10'0 0.0
2017-Aug-16 07:30N 49°29' E 000°10'0 0.0
2017-Aug-16 07:00N 49°29' E 000°10'0 0.0
2017-Aug-16 06:30N 49°29' E 000°10'0 0.0
2017-Aug-16 06:00N 49°29' E 000°10'0 0.0
2017-Aug-16 05:30N 49°29' E 000°10'0 0.0
2017-Aug-16 05:00N 49°29' E 000°10'0 0.0
2017-Aug-16 04:30N 49°29' E 000°10'0 0.9
2017-Aug-16 04:00N 49°28' E 000°09'3 6.7
2017-Aug-16 03:31N 49°29' E 000°04'714.3
2017-Aug-16 03:00N 49°31' W 000°06'4 7.6
2017-Aug-16 02:30N 49°33' W 000°11'4 8.3
2017-Aug-16 02:00N 49°37' W 000°11'510.7
2017-Aug-16 01:30N 49°43' W 000°12'1120.6
2017-Aug-16 00:58N 49°54' W 000°10'1021.1
2017-Aug-16 00:30N 50°03' W 000°08'1121.2
2017-Aug-16 00:00N 50°14' W 000°07'1121.0
2017-Aug-15 23:30N 50°24' W 000°03'1019.3
2017-Aug-15 23:00N 50°29' E 000°10'1121.6
2017-Aug-15 22:30N 50°32' E 000°26'1121.8
2017-Aug-15 22:01N 50°37' E 000°42'1121.6
2017-Aug-15 21:31N 50°43' E 000°56'1121.0
2017-Aug-15 20:58N 50°50' E 001°10'1020.7
2017-Aug-15 20:31N 50°57' E 001°21'1019.9
2017-Aug-15 20:01N 51°04' E 001°32'1019.3
2017-Aug-15 19:31N 51°11' E 001°43'918.9
2017-Aug-15 19:01N 51°19' E 001°50'1019.0
2017-Aug-15 18:31N 51°28' E 001°54'1019.3
2017-Aug-15 18:00N 51°37' E 001°47'918.6
2017-Aug-15 17:31N 51°46' E 001°45'815.4
2017-Aug-15 17:01N 51°52' E 001°36'510.9
2017-Aug-15 16:31N 51°56' E 001°31'713.7
2017-Aug-15 16:00N 51°55' E 001°20'3 5.8
2017-Aug-15 15:30N 51°58' E 001°17'0 0.1
2017-Aug-15 15:00N 51°58' E 001°17'0 0.0
2017-Aug-15 14:30N 51°58' E 001°17'0 0.0
2017-Aug-15 14:00N 51°58' E 001°17'0 0.0
2017-Aug-15 13:30N 51°58' E 001°17'0 0.0
2017-Aug-15 13:00N 51°58' E 001°17'0 0.0
2017-Aug-15 12:30N 51°58' E 001°17'0 0.0
2017-Aug-15 12:00N 51°58' E 001°17'0 0.0
2017-Aug-15 11:30N 51°58' E 001°17'0 0.0
2017-Aug-15 11:00N 51°58' E 001°17'0 0.0
2017-Aug-15 10:30N 51°58' E 001°17'0 0.0
2017-Aug-15 10:00N 51°58' E 001°17'0 0.0
2017-Aug-15 09:30N 51°58' E 001°17'0 0.0
2017-Aug-15 09:00N 51°58' E 001°17'0 0.0
2017-Aug-15 08:30N 51°58' E 001°17'0 0.0
2017-Aug-15 08:00N 51°58' E 001°17'0 0.0
2017-Aug-15 07:30N 51°58' E 001°17'0 0.0
2017-Aug-15 07:00N 51°58' E 001°17'0 0.0
2017-Aug-15 06:30N 51°58' E 001°17'0 0.0
2017-Aug-15 06:00N 51°58' E 001°17'0 0.0
2017-Aug-15 05:30N 51°58' E 001°17'0 0.0
2017-Aug-15 05:00N 51°58' E 001°17'0 0.0
2017-Aug-15 04:30N 51°58' E 001°17'0 0.0
2017-Aug-15 04:01N 51°58' E 001°17'0 0.0
2017-Aug-15 03:31N 51°58' E 001°17'0 0.0
2017-Aug-15 03:00N 51°58' E 001°17'0 0.0
2017-Aug-15 02:30N 51°58' E 001°17'0 0.0
2017-Aug-15 02:00N 51°58' E 001°17'0 0.0
2017-Aug-15 01:30N 51°58' E 001°17'0 0.0
2017-Aug-15 01:00N 51°58' E 001°17'0 0.0
2017-Aug-15 00:30N 51°58' E 001°17'0 0.0
2017-Aug-15 00:01N 51°58' E 001°17'0 0.0
2017-Aug-14 23:30N 51°58' E 001°17'0 0.0
2017-Aug-14 23:00N 51°58' E 001°17'0 0.0
2017-Aug-14 22:30N 51°58' E 001°17'0 0.0
2017-Aug-14 22:01N 51°58' E 001°17'0 0.0
2017-Aug-14 21:30N 51°58' E 001°17'0 0.0
2017-Aug-14 21:01N 51°58' E 001°17'0 0.0
2017-Aug-14 20:30N 51°58' E 001°17'0 0.0
2017-Aug-14 20:00N 51°58' E 001°17'0 0.0
2017-Aug-14 19:30N 51°58' E 001°17'0 0.0
2017-Aug-14 19:00N 51°58' E 001°17'0 0.0
2017-Aug-14 18:30N 51°58' E 001°17'0 0.0
2017-Aug-14 18:00N 51°58' E 001°17'0 0.0
2017-Aug-14 17:30N 51°58' E 001°17'0 0.0
2017-Aug-14 17:00N 51°58' E 001°17'0 0.0
2017-Aug-14 16:31N 51°58' E 001°17'0 0.0
2017-Aug-14 16:01N 51°58' E 001°17'0 0.0
2017-Aug-14 15:30N 51°58' E 001°17'0 0.0
2017-Aug-14 15:00N 51°58' E 001°17'0 0.0
2017-Aug-14 14:30N 51°58' E 001°17'0 0.0
2017-Aug-14 14:00N 51°58' E 001°17'0 0.0
2017-Aug-14 13:30N 51°58' E 001°17'0 0.1
2017-Aug-14 13:00N 51°58' E 001°17'1 2.1
2017-Aug-14 12:30N 51°57' E 001°18'3 5.9
2017-Aug-14 12:01N 51°56' E 001°23'612.9
2017-Aug-14 11:30N 51°55' E 001°33'510.1
2017-Aug-14 11:01N 51°52' E 001°39'4 8.2
2017-Aug-14 10:31N 51°53' E 001°45'0 0.9
2017-Aug-14 10:00N 51°53' E 001°46'0 0.6
2017-Aug-14 09:31N 51°53' E 001°46'0 0.8
2017-Aug-14 09:01N 51°53' E 001°46'0 0.3
2017-Aug-14 08:30N 51°53' E 001°46'0 0.9
2017-Aug-14 08:00N 51°53' E 001°46'1 1.2
2017-Aug-14 07:31N 51°52' E 001°46'  

Dump ship's entire track history